sensor_id;sensor_type;location;lat;lon;timestamp;pressure;altitude;pressure_sealevel;temperature;humidity
24422;BME280;12600;53.326;-6.298;2023-04-06T00:01:46;100962.78;;;12.79;66.28
24422;BME280;12600;53.326;-6.298;2023-04-06T00:04:35;100967.91;;;12.72;66.27
24422;BME280;12600;53.326;-6.298;2023-04-06T00:07:25;100980.59;;;12.59;66.51
24422;BME280;12600;53.326;-6.298;2023-04-06T00:10:17;100966.69;;;12.56;66.25
24422;BME280;12600;53.326;-6.298;2023-04-06T00:13:07;100968.25;;;12.48;66.62
24422;BME280;12600;53.326;-6.298;2023-04-06T00:15:56;100965.78;;;12.38;66.62
24422;BME280;12600;53.326;-6.298;2023-04-06T00:18:46;100950.56;;;12.23;67.03
24422;BME280;12600;53.326;-6.298;2023-04-06T00:21:35;100954.59;;;12.26;67.17
24422;BME280;12600;53.326;-6.298;2023-04-06T00:24:25;100957.97;;;12.23;67.17
24422;BME280;12600;53.326;-6.298;2023-04-06T00:27:15;100948.44;;;12.20;67.08
24422;BME280;12600;53.326;-6.298;2023-04-06T00:30:06;100952.31;;;12.19;66.99
24422;BME280;12600;53.326;-6.298;2023-04-06T00:32:56;100931.31;;;12.15;67.31
24422;BME280;12600;53.326;-6.298;2023-04-06T00:35:45;100923.44;;;12.13;67.39
24422;BME280;12600;53.326;-6.298;2023-04-06T00:38:35;100922.94;;;12.11;67.30
24422;BME280;12600;53.326;-6.298;2023-04-06T00:41:24;100934.00;;;12.06;67.26
24422;BME280;12600;53.326;-6.298;2023-04-06T00:44:15;100941.53;;;12.00;67.91
24422;BME280;12600;53.326;-6.298;2023-04-06T00:47:04;100943.16;;;12.01;68.24
24422;BME280;12600;53.326;-6.298;2023-04-06T00:49:54;100947.66;;;11.97;68.08
24422;BME280;12600;53.326;-6.298;2023-04-06T00:52:43;100949.06;;;11.95;68.11
24422;BME280;12600;53.326;-6.298;2023-04-06T00:55:33;100936.94;;;11.87;68.29
24422;BME280;12600;53.326;-6.298;2023-04-06T00:58:24;100931.47;;;11.87;68.20
24422;BME280;12600;53.326;-6.298;2023-04-06T01:01:24;100935.50;;;11.90;68.55
24422;BME280;12600;53.326;-6.298;2023-04-06T01:04:18;100948.72;;;11.88;68.18
24422;BME280;12600;53.326;-6.298;2023-04-06T01:07:07;100942.03;;;11.80;68.23
24422;BME280;12600;53.326;-6.298;2023-04-06T01:10:05;100942.53;;;11.82;68.36
24422;BME280;12600;53.326;-6.298;2023-04-06T01:12:56;100948.81;;;11.83;68.15
24422;BME280;12600;53.326;-6.298;2023-04-06T01:16:05;100951.72;;;11.86;68.42
24422;BME280;12600;53.326;-6.298;2023-04-06T01:19:16;100951.94;;;11.76;68.36
24422;BME280;12600;53.326;-6.298;2023-04-06T01:22:15;100962.50;;;11.83;68.70
24422;BME280;12600;53.326;-6.298;2023-04-06T01:25:14;100956.53;;;11.81;68.84
24422;BME280;12600;53.326;-6.298;2023-04-06T01:28:20;100945.50;;;11.72;69.25
24422;BME280;12600;53.326;-6.298;2023-04-06T01:31:25;100944.97;;;11.70;69.97
24422;BME280;12600;53.326;-6.298;2023-04-06T01:34:15;100952.56;;;11.73;69.32
24422;BME280;12600;53.326;-6.298;2023-04-06T01:37:06;100939.50;;;11.70;69.26
24422;BME280;12600;53.326;-6.298;2023-04-06T01:39:57;100946.09;;;11.69;69.28
24422;BME280;12600;53.326;-6.298;2023-04-06T01:43:00;100954.13;;;11.65;68.99
24422;BME280;12600;53.326;-6.298;2023-04-06T01:46:10;100939.31;;;11.66;68.83
24422;BME280;12600;53.326;-6.298;2023-04-06T01:49:02;100937.56;;;11.70;68.97
24422;BME280;12600;53.326;-6.298;2023-04-06T01:51:56;100923.88;;;11.70;69.25
24422;BME280;12600;53.326;-6.298;2023-04-06T01:54:45;100931.59;;;11.68;68.84
24422;BME280;12600;53.326;-6.298;2023-04-06T01:57:41;100924.41;;;11.72;69.11
24422;BME280;12600;53.326;-6.298;2023-04-06T02:00:38;100926.63;;;11.70;69.79
24422;BME280;12600;53.326;-6.298;2023-04-06T02:03:27;100923.28;;;11.73;69.78
24422;BME280;12600;53.326;-6.298;2023-04-06T02:06:24;100932.72;;;11.67;70.21
24422;BME280;12600;53.326;-6.298;2023-04-06T02:09:14;100929.81;;;11.64;70.72
24422;BME280;12600;53.326;-6.298;2023-04-06T02:12:04;100930.63;;;11.64;70.86
24422;BME280;12600;53.326;-6.298;2023-04-06T02:14:56;100928.63;;;11.56;70.54
24422;BME280;12600;53.326;-6.298;2023-04-06T02:17:45;100912.13;;;11.47;70.58
24422;BME280;12600;53.326;-6.298;2023-04-06T02:20:34;100922.19;;;11.61;70.39
24422;BME280;12600;53.326;-6.298;2023-04-06T02:23:24;100921.53;;;11.55;70.53
24422;BME280;12600;53.326;-6.298;2023-04-06T02:26:14;100922.13;;;11.52;70.26
24422;BME280;12600;53.326;-6.298;2023-04-06T02:29:03;100915.75;;;11.57;70.44
24422;BME280;12600;53.326;-6.298;2023-04-06T02:31:55;100925.66;;;11.53;70.07
24422;BME280;12600;53.326;-6.298;2023-04-06T02:34:44;100915.13;;;11.46;70.48
24422;BME280;12600;53.326;-6.298;2023-04-06T02:37:36;100918.09;;;11.49;70.68
24422;BME280;12600;53.326;-6.298;2023-04-06T02:40:25;100928.28;;;11.58;70.31
24422;BME280;12600;53.326;-6.298;2023-04-06T02:43:15;100921.63;;;11.50;70.02
24422;BME280;12600;53.326;-6.298;2023-04-06T02:46:05;100925.97;;;11.51;69.89
24422;BME280;12600;53.326;-6.298;2023-04-06T02:49:00;100927.09;;;11.50;69.82
24422;BME280;12600;53.326;-6.298;2023-04-06T02:51:52;100929.75;;;11.41;69.86
24422;BME280;12600;53.326;-6.298;2023-04-06T02:54:49;100930.56;;;11.42;69.86
24422;BME280;12600;53.326;-6.298;2023-04-06T02:57:45;100929.44;;;11.43;70.19
24422;BME280;12600;53.326;-6.298;2023-04-06T03:00:35;100931.16;;;11.39;70.49
24422;BME280;12600;53.326;-6.298;2023-04-06T03:03:25;100924.88;;;11.38;70.42
24422;BME280;12600;53.326;-6.298;2023-04-06T03:06:16;100921.47;;;11.33;70.84
24422;BME280;12600;53.326;-6.298;2023-04-06T03:09:08;100935.47;;;11.31;71.25
24422;BME280;12600;53.326;-6.298;2023-04-06T03:12:01;100928.56;;;11.34;71.43
24422;BME280;12600;53.326;-6.298;2023-04-06T03:14:58;100929.16;;;11.31;71.90
24422;BME280;12600;53.326;-6.298;2023-04-06T03:17:49;100924.41;;;11.23;71.98
24422;BME280;12600;53.326;-6.298;2023-04-06T03:21:02;100931.81;;;11.22;71.99
24422;BME280;12600;53.326;-6.298;2023-04-06T03:24:04;100922.50;;;11.23;71.83
24422;BME280;12600;53.326;-6.298;2023-04-06T03:26:54;100936.69;;;11.25;71.65
24422;BME280;12600;53.326;-6.298;2023-04-06T03:29:44;100930.81;;;11.18;71.97
24422;BME280;12600;53.326;-6.298;2023-04-06T03:32:38;100933.25;;;11.19;72.07
24422;BME280;12600;53.326;-6.298;2023-04-06T03:35:28;100935.47;;;11.17;72.24
24422;BME280;12600;53.326;-6.298;2023-04-06T03:38:17;100931.22;;;11.11;72.66
24422;BME280;12600;53.326;-6.298;2023-04-06T03:41:08;100926.06;;;11.10;72.34
24422;BME280;12600;53.326;-6.298;2023-04-06T03:44:00;100933.69;;;10.99;73.00
24422;BME280;12600;53.326;-6.298;2023-04-06T03:46:49;100926.97;;;11.05;73.08
24422;BME280;12600;53.326;-6.298;2023-04-06T03:49:39;100939.84;;;11.05;73.24
24422;BME280;12600;53.326;-6.298;2023-04-06T03:52:31;100935.88;;;11.11;72.92
24422;BME280;12600;53.326;-6.298;2023-04-06T03:55:24;100932.44;;;11.05;73.14
24422;BME280;12600;53.326;-6.298;2023-04-06T03:58:15;100925.66;;;11.03;73.05
24422;BME280;12600;53.326;-6.298;2023-04-06T04:01:05;100942.56;;;11.05;73.04
24422;BME280;12600;53.326;-6.298;2023-04-06T04:03:55;100943.41;;;10.91;73.78
24422;BME280;12600;53.326;-6.298;2023-04-06T04:06:44;100927.41;;;10.85;74.87
24422;BME280;12600;53.326;-6.298;2023-04-06T04:09:34;100940.97;;;10.76;75.93
24422;BME280;12600;53.326;-6.298;2023-04-06T04:12:24;100940.75;;;10.73;75.80
24422;BME280;12600;53.326;-6.298;2023-04-06T04:15:15;100944.59;;;10.72;76.20
24422;BME280;12600;53.326;-6.298;2023-04-06T04:18:05;100933.16;;;10.70;76.57
24422;BME280;12600;53.326;-6.298;2023-04-06T04:20:54;100923.34;;;10.69;76.41
24422;BME280;12600;53.326;-6.298;2023-04-06T04:23:44;100942.97;;;10.71;76.43
24422;BME280;12600;53.326;-6.298;2023-04-06T04:26:33;100931.75;;;10.72;76.14
24422;BME280;12600;53.326;-6.298;2023-04-06T04:29:23;100941.88;;;10.72;76.51
24422;BME280;12600;53.326;-6.298;2023-04-06T04:32:16;100932.66;;;10.68;76.63
24422;BME280;12600;53.326;-6.298;2023-04-06T04:35:08;100946.22;;;10.73;76.47
24422;BME280;12600;53.326;-6.298;2023-04-06T04:38:00;100940.88;;;10.68;77.03
24422;BME280;12600;53.326;-6.298;2023-04-06T04:40:50;100948.03;;;10.63;77.06
24422;BME280;12600;53.326;-6.298;2023-04-06T04:43:39;100953.19;;;10.65;77.30
24422;BME280;12600;53.326;-6.298;2023-04-06T04:46:30;100949.66;;;10.64;77.11
24422;BME280;12600;53.326;-6.298;2023-04-06T04:49:21;100961.63;;;10.69;77.12
24422;BME280;12600;53.326;-6.298;2023-04-06T04:52:12;100961.91;;;10.67;77.37
24422;BME280;12600;53.326;-6.298;2023-04-06T04:55:13;100972.25;;;10.70;77.35
24422;BME280;12600;53.326;-6.298;2023-04-06T04:58:06;100969.28;;;10.67;78.07
24422;BME280;12600;53.326;-6.298;2023-04-06T05:01:08;100956.22;;;10.63;77.31
24422;BME280;12600;53.326;-6.298;2023-04-06T05:03:58;100960.88;;;10.63;77.34
24422;BME280;12600;53.326;-6.298;2023-04-06T05:06:49;100971.75;;;10.68;77.22
24422;BME280;12600;53.326;-6.298;2023-04-06T05:09:39;100960.00;;;10.68;77.36
24422;BME280;12600;53.326;-6.298;2023-04-06T05:12:30;100968.19;;;10.68;77.24
24422;BME280;12600;53.326;-6.298;2023-04-06T05:15:25;100969.19;;;10.72;77.44
24422;BME280;12600;53.326;-6.298;2023-04-06T05:18:20;100975.78;;;10.71;77.45
24422;BME280;12600;53.326;-6.298;2023-04-06T05:21:11;100982.06;;;10.71;77.20
24422;BME280;12600;53.326;-6.298;2023-04-06T05:24:13;100979.00;;;10.73;77.05
24422;BME280;12600;53.326;-6.298;2023-04-06T05:27:05;100978.00;;;10.69;76.95
24422;BME280;12600;53.326;-6.298;2023-04-06T05:29:55;100987.72;;;10.75;77.06
24422;BME280;12600;53.326;-6.298;2023-04-06T05:32:47;100984.69;;;10.76;77.19
24422;BME280;12600;53.326;-6.298;2023-04-06T05:35:37;100993.09;;;10.80;77.32
24422;BME280;12600;53.326;-6.298;2023-04-06T05:38:31;100979.22;;;10.76;77.27
24422;BME280;12600;53.326;-6.298;2023-04-06T05:41:30;100987.13;;;10.78;77.27
24422;BME280;12600;53.326;-6.298;2023-04-06T05:44:20;100985.91;;;10.70;77.67
24422;BME280;12600;53.326;-6.298;2023-04-06T05:47:20;100981.44;;;10.60;78.18
24422;BME280;12600;53.326;-6.298;2023-04-06T05:50:18;100991.75;;;10.63;78.36
24422;BME280;12600;53.326;-6.298;2023-04-06T05:53:07;100998.84;;;10.64;78.40
24422;BME280;12600;53.326;-6.298;2023-04-06T05:56:02;100994.88;;;10.57;78.76
24422;BME280;12600;53.326;-6.298;2023-04-06T05:58:54;100994.56;;;10.58;78.98
24422;BME280;12600;53.326;-6.298;2023-04-06T06:01:48;100994.97;;;10.52;79.24
24422;BME280;12600;53.326;-6.298;2023-04-06T06:04:39;101017.53;;;10.57;79.37
24422;BME280;12600;53.326;-6.298;2023-04-06T06:07:28;100998.22;;;10.54;79.72
24422;BME280;12600;53.326;-6.298;2023-04-06T06:10:21;101009.16;;;10.54;79.87
24422;BME280;12600;53.326;-6.298;2023-04-06T06:13:11;101020.28;;;10.57;79.91
24422;BME280;12600;53.326;-6.298;2023-04-06T06:16:03;101009.22;;;10.49;80.89
24422;BME280;12600;53.326;-6.298;2023-04-06T06:18:56;100970.97;;;10.16;80.81
24422;BME280;12600;53.326;-6.298;2023-04-06T06:21:46;101022.31;;;10.52;80.93
24422;BME280;12600;53.326;-6.298;2023-04-06T06:24:36;101019.94;;;10.45;81.54
24422;BME280;12600;53.326;-6.298;2023-04-06T06:27:25;101029.69;;;10.51;81.31
24422;BME280;12600;53.326;-6.298;2023-04-06T06:30:15;101035.44;;;10.50;81.97
24422;BME280;12600;53.326;-6.298;2023-04-06T06:33:07;101030.88;;;10.45;81.79
24422;BME280;12600;53.326;-6.298;2023-04-06T06:35:56;101036.66;;;10.44;82.24
24422;BME280;12600;53.326;-6.298;2023-04-06T06:38:45;101031.75;;;10.41;82.64
24422;BME280;12600;53.326;-6.298;2023-04-06T06:41:37;101041.56;;;10.42;82.77
24422;BME280;12600;53.326;-6.298;2023-04-06T06:44:28;101038.84;;;10.42;82.88
24422;BME280;12600;53.326;-6.298;2023-04-06T06:47:18;101035.97;;;10.33;82.91
24422;BME280;12600;53.326;-6.298;2023-04-06T06:50:09;101041.00;;;10.26;82.81
24422;BME280;12600;53.326;-6.298;2023-04-06T06:52:59;101043.59;;;10.36;83.01
24422;BME280;12600;53.326;-6.298;2023-04-06T06:55:48;101044.72;;;10.35;83.06
24422;BME280;12600;53.326;-6.298;2023-04-06T06:58:37;101040.56;;;10.38;83.33
24422;BME280;12600;53.326;-6.298;2023-04-06T07:01:27;101054.41;;;10.41;83.25
24422;BME280;12600;53.326;-6.298;2023-04-06T07:04:16;101045.53;;;10.49;82.93
24422;BME280;12600;53.326;-6.298;2023-04-06T07:07:07;101050.06;;;10.59;83.02
24422;BME280;12600;53.326;-6.298;2023-04-06T07:09:57;101057.03;;;10.65;82.75
24422;BME280;12600;53.326;-6.298;2023-04-06T07:12:47;101058.75;;;10.61;82.21
24422;BME280;12600;53.326;-6.298;2023-04-06T07:15:36;101064.78;;;10.58;82.27
24422;BME280;12600;53.326;-6.298;2023-04-06T07:18:26;101066.72;;;10.57;82.24
24422;BME280;12600;53.326;-6.298;2023-04-06T07:21:16;101068.00;;;10.46;81.87
24422;BME280;12600;53.326;-6.298;2023-04-06T07:24:07;101066.59;;;10.49;81.87
24422;BME280;12600;53.326;-6.298;2023-04-06T07:26:58;101075.59;;;10.49;81.81
24422;BME280;12600;53.326;-6.298;2023-04-06T07:29:49;101077.16;;;10.55;81.97
24422;BME280;12600;53.326;-6.298;2023-04-06T07:32:38;101060.94;;;10.45;82.13
24422;BME280;12600;53.326;-6.298;2023-04-06T07:35:28;101081.66;;;10.46;82.09
24422;BME280;12600;53.326;-6.298;2023-04-06T07:38:18;101039.47;;;10.20;82.12
24422;BME280;12600;53.326;-6.298;2023-04-06T07:41:09;101088.06;;;10.55;82.42
24422;BME280;12600;53.326;-6.298;2023-04-06T07:43:58;101082.22;;;10.62;82.49
24422;BME280;12600;53.326;-6.298;2023-04-06T07:46:48;101090.13;;;10.63;82.27
24422;BME280;12600;53.326;-6.298;2023-04-06T07:49:40;101086.66;;;10.58;82.40
24422;BME280;12600;53.326;-6.298;2023-04-06T07:52:31;101080.91;;;10.59;82.58
24422;BME280;12600;53.326;-6.298;2023-04-06T07:55:22;101093.22;;;10.76;83.09
24422;BME280;12600;53.326;-6.298;2023-04-06T07:58:13;101090.19;;;10.77;82.80
24422;BME280;12600;53.326;-6.298;2023-04-06T08:01:02;101092.59;;;10.79;82.24
24422;BME280;12600;53.326;-6.298;2023-04-06T08:03:51;101096.84;;;10.71;81.97
24422;BME280;12600;53.326;-6.298;2023-04-06T08:06:43;101092.91;;;10.77;82.03
24422;BME280;12600;53.326;-6.298;2023-04-06T08:09:33;101093.16;;;10.95;82.12
24422;BME280;12600;53.326;-6.298;2023-04-06T08:12:22;101101.91;;;10.78;81.48
24422;BME280;12600;53.326;-6.298;2023-04-06T08:15:13;101108.81;;;10.89;82.05
24422;BME280;12600;53.326;-6.298;2023-04-06T08:18:03;101113.28;;;10.99;81.60
24422;BME280;12600;53.326;-6.298;2023-04-06T08:20:52;101112.09;;;10.91;81.00
24422;BME280;12600;53.326;-6.298;2023-04-06T08:23:41;101109.13;;;10.87;80.74
24422;BME280;12600;53.326;-6.298;2023-04-06T08:26:31;101118.19;;;11.02;81.32
24422;BME280;12600;53.326;-6.298;2023-04-06T08:29:20;101116.94;;;10.94;81.29
24422;BME280;12600;53.326;-6.298;2023-04-06T08:32:11;101115.94;;;11.04;80.84
24422;BME280;12600;53.326;-6.298;2023-04-06T08:35:00;101136.41;;;11.06;80.96
24422;BME280;12600;53.326;-6.298;2023-04-06T08:37:49;101129.34;;;11.19;80.30
24422;BME280;12600;53.326;-6.298;2023-04-06T08:40:39;101118.59;;;11.23;79.92
24422;BME280;12600;53.326;-6.298;2023-04-06T08:43:29;101125.31;;;11.30;79.42
24422;BME280;12600;53.326;-6.298;2023-04-06T08:46:20;101132.81;;;11.52;79.06
24422;BME280;12600;53.326;-6.298;2023-04-06T08:49:11;101132.03;;;11.65;78.35
24422;BME280;12600;53.326;-6.298;2023-04-06T08:52:01;101144.56;;;11.53;75.66
24422;BME280;12600;53.326;-6.298;2023-04-06T08:54:50;101140.06;;;11.89;77.64
24422;BME280;12600;53.326;-6.298;2023-04-06T08:57:40;101140.94;;;11.98;76.75
24422;BME280;12600;53.326;-6.298;2023-04-06T09:00:29;101151.25;;;12.15;75.41
24422;BME280;12600;53.326;-6.298;2023-04-06T09:03:20;101151.91;;;12.12;72.98
24422;BME280;12600;53.326;-6.298;2023-04-06T09:06:12;101157.56;;;12.16;74.28
24422;BME280;12600;53.326;-6.298;2023-04-06T09:09:02;101150.88;;;12.08;73.33
24422;BME280;12600;53.326;-6.298;2023-04-06T09:11:52;101161.31;;;12.20;71.91
24422;BME280;12600;53.326;-6.298;2023-04-06T09:14:41;101163.75;;;12.21;70.66
24422;BME280;12600;53.326;-6.298;2023-04-06T09:17:32;101164.53;;;12.36;71.74
24422;BME280;12600;53.326;-6.298;2023-04-06T09:20:23;101168.00;;;12.50;71.29
24422;BME280;12600;53.326;-6.298;2023-04-06T09:23:19;101179.22;;;12.40;69.43
24422;BME280;12600;53.326;-6.298;2023-04-06T09:26:11;101173.81;;;12.48;69.21
24422;BME280;12600;53.326;-6.298;2023-04-06T09:29:01;101171.34;;;12.60;69.26
24422;BME280;12600;53.326;-6.298;2023-04-06T09:31:51;101182.88;;;12.94;69.25
24422;BME280;12600;53.326;-6.298;2023-04-06T09:34:40;101173.72;;;12.98;68.58
24422;BME280;12600;53.326;-6.298;2023-04-06T09:37:30;101198.09;;;13.00;67.03
24422;BME280;12600;53.326;-6.298;2023-04-06T09:40:20;101200.16;;;12.94;66.14
24422;BME280;12600;53.326;-6.298;2023-04-06T09:43:10;101209.63;;;12.88;65.43
24422;BME280;12600;53.326;-6.298;2023-04-06T09:46:00;101209.66;;;12.74;63.95
24422;BME280;12600;53.326;-6.298;2023-04-06T09:48:52;101209.00;;;12.69;64.01
24422;BME280;12600;53.326;-6.298;2023-04-06T09:51:45;101210.00;;;12.59;63.41
24422;BME280;12600;53.326;-6.298;2023-04-06T09:54:35;101207.97;;;12.65;63.17
24422;BME280;12600;53.326;-6.298;2023-04-06T09:57:31;101205.81;;;12.98;62.48
24422;BME280;12600;53.326;-6.298;2023-04-06T10:00:22;101210.25;;;13.07;60.33
24422;BME280;12600;53.326;-6.298;2023-04-06T10:03:25;101204.94;;;13.11;57.82
24422;BME280;12600;53.326;-6.298;2023-04-06T10:06:23;101219.56;;;13.20;57.18
24422;BME280;12600;53.326;-6.298;2023-04-06T10:09:16;101228.28;;;13.22;57.44
24422;BME280;12600;53.326;-6.298;2023-04-06T10:12:06;101219.78;;;12.87;58.08
24422;BME280;12600;53.326;-6.298;2023-04-06T10:14:57;101221.34;;;12.80;59.35
24422;BME280;12600;53.326;-6.298;2023-04-06T10:17:46;101221.44;;;12.75;59.93
24422;BME280;12600;53.326;-6.298;2023-04-06T10:20:42;101211.53;;;12.65;60.20
24422;BME280;12600;53.326;-6.298;2023-04-06T10:23:35;101233.41;;;12.43;59.44
24422;BME280;12600;53.326;-6.298;2023-04-06T10:26:25;101243.38;;;12.39;58.90
24422;BME280;12600;53.326;-6.298;2023-04-06T10:29:14;101234.31;;;12.88;58.39
24422;BME280;12600;53.326;-6.298;2023-04-06T10:32:05;101235.63;;;13.89;57.17
24422;BME280;12600;53.326;-6.298;2023-04-06T10:35:06;101227.84;;;14.39;54.78
24422;BME280;12600;53.326;-6.298;2023-04-06T10:38:03;101244.00;;;14.41;53.37
24422;BME280;12600;53.326;-6.298;2023-04-06T10:40:52;101245.56;;;14.16;52.96
24422;BME280;12600;53.326;-6.298;2023-04-06T10:43:41;101244.91;;;13.79;52.83
24422;BME280;12600;53.326;-6.298;2023-04-06T10:46:34;101257.63;;;13.97;52.06
24422;BME280;12600;53.326;-6.298;2023-04-06T10:49:25;101257.44;;;13.94;51.68
24422;BME280;12600;53.326;-6.298;2023-04-06T10:52:14;101246.88;;;13.87;51.67
24422;BME280;12600;53.326;-6.298;2023-04-06T10:55:04;101254.25;;;13.69;52.41
24422;BME280;12600;53.326;-6.298;2023-04-06T10:57:54;101264.53;;;13.95;52.67
24422;BME280;12600;53.326;-6.298;2023-04-06T11:00:45;101258.16;;;14.74;50.86
24422;BME280;12600;53.326;-6.298;2023-04-06T11:03:43;101244.56;;;15.12;48.08
24422;BME280;12600;53.326;-6.298;2023-04-06T11:06:34;101269.00;;;15.14;47.01
24422;BME280;12600;53.326;-6.298;2023-04-06T11:09:25;101263.19;;;14.98;47.30
24422;BME280;12600;53.326;-6.298;2023-04-06T11:12:22;101273.84;;;14.65;47.49
24422;BME280;12600;53.326;-6.298;2023-04-06T11:15:12;101277.75;;;14.81;48.24
24422;BME280;12600;53.326;-6.298;2023-04-06T11:18:04;101275.13;;;15.45;48.36
24422;BME280;12600;53.326;-6.298;2023-04-06T11:20:53;101272.38;;;15.36;44.24
24422;BME280;12600;53.326;-6.298;2023-04-06T11:23:44;101276.41;;;15.39;45.20
24422;BME280;12600;53.326;-6.298;2023-04-06T11:26:38;101275.81;;;15.16;46.43
24422;BME280;12600;53.326;-6.298;2023-04-06T11:29:29;101279.19;;;15.22;47.13
24422;BME280;12600;53.326;-6.298;2023-04-06T11:32:22;101267.88;;;15.15;46.33
24422;BME280;12600;53.326;-6.298;2023-04-06T11:35:21;101291.03;;;16.04;46.44
24422;BME280;12600;53.326;-6.298;2023-04-06T11:38:13;101287.41;;;16.50;43.44
24422;BME280;12600;53.326;-6.298;2023-04-06T11:41:03;101283.16;;;17.03;43.58
24422;BME280;12600;53.326;-6.298;2023-04-06T11:44:01;101286.19;;;16.60;42.42
24422;BME280;12600;53.326;-6.298;2023-04-06T11:46:53;101287.88;;;16.22;43.09
24422;BME280;12600;53.326;-6.298;2023-04-06T11:49:44;101280.66;;;16.39;43.53
24422;BME280;12600;53.326;-6.298;2023-04-06T11:52:33;101293.00;;;16.71;43.95
24422;BME280;12600;53.326;-6.298;2023-04-06T11:55:23;101300.16;;;16.93;41.65
24422;BME280;12600;53.326;-6.298;2023-04-06T11:58:14;101303.50;;;17.19;40.84
24422;BME280;12600;53.326;-6.298;2023-04-06T12:01:04;101294.09;;;17.99;40.62
24422;BME280;12600;53.326;-6.298;2023-04-06T12:03:53;101301.72;;;18.51;38.26
24422;BME280;12600;53.326;-6.298;2023-04-06T12:06:43;101299.06;;;18.79;38.09
24422;BME280;12600;53.326;-6.298;2023-04-06T12:09:32;101305.88;;;19.21;37.30
24422;BME280;12600;53.326;-6.298;2023-04-06T12:12:24;101295.75;;;19.41;36.69
24422;BME280;12600;53.326;-6.298;2023-04-06T12:15:14;101297.63;;;19.81;37.41
24422;BME280;12600;53.326;-6.298;2023-04-06T12:18:04;101293.81;;;20.01;37.94
24422;BME280;12600;53.326;-6.298;2023-04-06T12:20:53;101302.31;;;20.08;34.97
24422;BME280;12600;53.326;-6.298;2023-04-06T12:23:42;101291.22;;;20.40;35.78
24422;BME280;12600;53.326;-6.298;2023-04-06T12:26:32;101294.06;;;19.80;34.69
24422;BME280;12600;53.326;-6.298;2023-04-06T12:29:21;101301.31;;;19.41;35.97
24422;BME280;12600;53.326;-6.298;2023-04-06T12:32:12;101295.38;;;19.15;36.52
24422;BME280;12600;53.326;-6.298;2023-04-06T12:35:01;101287.06;;;19.71;36.54
24422;BME280;12600;53.326;-6.298;2023-04-06T12:37:51;101304.19;;;20.04;36.18
24422;BME280;12600;53.326;-6.298;2023-04-06T12:40:40;101299.34;;;20.64;35.67
24422;BME280;12600;53.326;-6.298;2023-04-06T12:43:29;101298.72;;;20.39;33.02
24422;BME280;12600;53.326;-6.298;2023-04-06T12:46:18;101297.66;;;20.44;32.90
24422;BME280;12600;53.326;-6.298;2023-04-06T12:49:10;101305.34;;;20.51;33.77
24422;BME280;12600;53.326;-6.298;2023-04-06T12:51:59;101300.09;;;20.30;33.77
24422;BME280;12600;53.326;-6.298;2023-04-06T12:54:48;101300.91;;;20.15;33.23
24422;BME280;12600;53.326;-6.298;2023-04-06T12:57:38;101310.78;;;20.98;33.81
24422;BME280;12600;53.326;-6.298;2023-04-06T13:00:28;101311.69;;;21.21;32.82
24422;BME280;12600;53.326;-6.298;2023-04-06T13:03:18;101302.28;;;21.45;32.18
24422;BME280;12600;53.326;-6.298;2023-04-06T13:06:10;101300.25;;;20.88;32.52
24422;BME280;12600;53.326;-6.298;2023-04-06T13:09:00;101311.00;;;20.38;33.35
24422;BME280;12600;53.326;-6.298;2023-04-06T13:11:50;101319.25;;;19.60;33.90
24422;BME280;12600;53.326;-6.298;2023-04-06T13:14:40;101321.72;;;19.93;34.27
24422;BME280;12600;53.326;-6.298;2023-04-06T13:17:29;101317.81;;;20.09;32.14
24422;BME280;12600;53.326;-6.298;2023-04-06T13:20:19;101327.81;;;19.98;30.11
24422;BME280;12600;53.326;-6.298;2023-04-06T13:23:09;101335.00;;;20.47;30.77
24422;BME280;12600;53.326;-6.298;2023-04-06T13:26:00;101321.41;;;20.77;29.98
24422;BME280;12600;53.326;-6.298;2023-04-06T13:28:50;101334.94;;;20.94;29.52
24422;BME280;12600;53.326;-6.298;2023-04-06T13:31:40;101330.69;;;21.00;30.04
24422;BME280;12600;53.326;-6.298;2023-04-06T13:34:29;101331.78;;;21.50;30.05
24422;BME280;12600;53.326;-6.298;2023-04-06T13:37:19;101328.56;;;21.90;29.00
24422;BME280;12600;53.326;-6.298;2023-04-06T13:40:11;101318.41;;;22.47;28.72
24422;BME280;12600;53.326;-6.298;2023-04-06T13:43:00;101331.81;;;22.38;28.14
24422;BME280;12600;53.326;-6.298;2023-04-06T13:45:50;101319.69;;;22.80;28.22
24422;BME280;12600;53.326;-6.298;2023-04-06T13:48:40;101323.88;;;22.93;27.78
24422;BME280;12600;53.326;-6.298;2023-04-06T13:51:29;101335.03;;;22.93;27.33
24422;BME280;12600;53.326;-6.298;2023-04-06T13:54:20;101327.47;;;22.94;27.70
24422;BME280;12600;53.326;-6.298;2023-04-06T13:57:11;101333.81;;;22.91;27.84
24422;BME280;12600;53.326;-6.298;2023-04-06T14:00:00;101337.59;;;22.06;28.08
24422;BME280;12600;53.326;-6.298;2023-04-06T14:02:54;101336.63;;;21.57;28.14
24422;BME280;12600;53.326;-6.298;2023-04-06T14:05:44;101332.97;;;21.14;30.01
24422;BME280;12600;53.326;-6.298;2023-04-06T14:08:33;101339.09;;;21.58;30.49
24422;BME280;12600;53.326;-6.298;2023-04-06T14:11:22;101348.44;;;22.34;30.15
24422;BME280;12600;53.326;-6.298;2023-04-06T14:14:13;101333.75;;;22.38;28.93
24422;BME280;12600;53.326;-6.298;2023-04-06T14:17:02;101335.97;;;22.51;27.35
24422;BME280;12600;53.326;-6.298;2023-04-06T14:19:52;101340.03;;;22.57;28.52
24422;BME280;12600;53.326;-6.298;2023-04-06T14:22:41;101343.59;;;22.54;28.36
24422;BME280;12600;53.326;-6.298;2023-04-06T14:25:31;101342.59;;;22.93;28.28
24422;BME280;12600;53.326;-6.298;2023-04-06T14:28:22;101337.16;;;22.77;28.17
24422;BME280;12600;53.326;-6.298;2023-04-06T14:31:14;101338.78;;;22.28;27.83
24422;BME280;12600;53.326;-6.298;2023-04-06T14:34:04;101344.19;;;21.37;29.02
24422;BME280;12600;53.326;-6.298;2023-04-06T14:36:53;101341.72;;;20.61;29.12
24422;BME280;12600;53.326;-6.298;2023-04-06T14:39:43;101324.25;;;20.45;29.34
24422;BME280;12600;53.326;-6.298;2023-04-06T14:42:32;101335.69;;;20.75;29.27
24422;BME280;12600;53.326;-6.298;2023-04-06T14:45:22;101334.69;;;21.38;29.62